.
WxDataArchive / Data Records for 2009-05-05
2009-05-04 May 2009 2009-05-06

Data Records for Tuesday, 05 May 2009

Time	Temp	Chill	HIndex	Humid	Dewpt	 Wind 	HiWind	WindDir	Rain 	Barom 
-----	----	-----	------	-----	-----	------	------	-------	-----	----- 
00:00	52.5	52.5	52.5	57	37.7	0	0	---	0.00	30.088 
00:05	52.3	52.3	52.3	58	38.0	0	0	---	0.00	30.088 
00:10	52.5	52.5	52.5	56	37.3	0	1	90	0.00	30.088 
00:15	52.8	52.8	52.8	56	37.5	0	1	90	0.00	30.092 
00:20	52.8	52.8	52.8	56	37.5	0	1	90	0.00	30.092 
00:25	52.8	52.8	52.8	56	37.5	0	1	90	0.00	30.092 
00:30	52.6	52.6	52.6	56	37.4	0	1	90	0.00	30.099 
00:35	52.5	52.5	52.5	57	37.7	0	1	90	0.00	30.099 
00:40	52.3	52.3	52.3	57	37.5	0	1	90	0.00	30.099 
00:45	52.3	52.3	52.3	57	37.5	0	2	90	0.00	30.099 
00:50	52.3	52.3	52.3	58	38.0	0	1	90	0.00	30.099 
00:55	52.3	52.3	52.3	57	37.5	0	1	90	0.00	30.099 
01:00	52.3	52.3	52.3	58	38.0	0	0	---	0.00	30.098 
01:05	52.3	52.3	52.3	58	38.0	0	1	90	0.00	30.098 
01:10	52.3	52.3	52.3	57	37.5	0	2	90	0.00	30.098 
01:15	52.3	52.3	52.3	58	38.0	0	1	90	0.00	30.098 
01:20	52.3	52.3	52.3	58	38.0	0	1	90	0.00	30.098 
01:25	52.3	52.3	52.3	58	38.0	0	2	90	0.00	30.098 
01:30	52.2	52.2	52.2	58	37.9	0	2	90	0.00	30.086 
01:35	52.2	52.2	52.2	58	37.9	0	2	90	0.00	30.086 
01:40	52.2	52.2	52.2	58	37.9	1	4	90	0.00	30.086 
01:45	52.2	52.2	52.2	58	37.9	0	2	90	0.00	30.078 
01:50	52.2	52.2	52.2	58	37.9	0	1	90	0.00	30.078 
01:55	52.3	52.3	52.3	58	38.0	0	2	90	0.00	30.078 
02:00	52.2	52.2	52.2	58	37.9	0	3	90	0.00	30.069 
02:05	52.2	52.2	52.2	58	37.9	0	2	90	0.00	30.069 
02:10	52.3	52.3	52.3	58	38.0	0	2	90	0.00	30.069 
02:15	52.3	52.3	52.3	58	38.0	1	4	90	0.00	30.060 
02:20	52.3	52.3	52.3	58	38.0	1	5	112	0.00	30.060 
02:25	52.3	52.3	52.3	58	38.0	1	4	112	0.00	30.060 
02:30	52.3	52.3	52.3	57	37.5	1	7	112	0.00	30.052 
02:35	52.2	52.2	52.2	57	37.4	1	4	90	0.00	30.052 
02:40	52.0	52.0	52.0	57	37.2	1	4	90	0.00	30.052 
02:45	51.7	51.7	51.7	57	37.0	1	4	112	0.00	30.050 
02:50	51.6	51.6	51.6	57	36.9	1	5	112	0.00	30.050 
02:55	51.4	51.4	51.4	58	37.1	1	2	112	0.00	30.050 
03:00	51.1	51.1	51.1	59	37.3	1	2	112	0.00	30.047 
03:05	51.0	51.0	51.0	59	37.2	0	2	112	0.00	30.047 
03:10	50.7	50.7	50.7	59	36.9	1	2	112	0.00	30.047 
03:15	50.5	50.5	50.5	60	37.1	0	1	112	0.00	30.045 
03:20	50.4	50.4	50.4	60	37.0	0	4	112	0.00	30.045 
03:25	50.2	50.2	50.2	61	37.3	1	3	112	0.00	30.045 
03:30	49.9	49.9	49.9	62	37.4	0	1	112	0.00	30.038 
03:35	49.8	49.8	49.8	62	37.3	0	0	---	0.00	30.038 
03:40	49.5	49.5	49.5	63	37.4	0	2	112	0.00	30.038 
03:45	49.2	49.2	49.2	63	37.1	0	1	112	0.00	30.038 
03:50	49.1	49.1	49.1	63	37.1	0	0	---	0.00	30.038 
03:55	49.1	49.1	49.1	63	37.1	0	1	112	0.00	30.038 
04:00	48.9	48.9	48.9	64	37.3	0	0	---	0.00	30.038 
04:05	48.8	48.8	48.8	64	37.2	0	2	112	0.00	30.038 
04:10	48.6	48.6	48.6	65	37.4	0	1	112	0.00	30.038 
04:15	48.5	48.5	48.5	65	37.3	0	0	---	0.00	30.041 
04:20	48.2	48.2	48.2	66	37.4	0	0	---	0.00	30.041 
04:25	47.9	47.9	47.9	66	37.1	0	0	---	0.00	30.041 
04:30	47.6	47.6	47.6	67	37.2	0	0	---	0.00	30.047 
04:35	47.3	47.3	47.3	67	36.9	0	0	---	0.00	30.047 
04:40	47.0	47.0	47.0	68	37.0	0	0	---	0.00	30.047 
04:45	46.8	46.8	46.8	69	37.2	0	0	---	0.00	30.052 
04:50	46.5	46.5	46.5	70	37.3	0	0	---	0.00	30.052 
04:55	46.2	46.2	46.2	70	37.0	0	0	---	0.00	30.052 
05:00	46.0	46.0	46.0	71	37.1	0	0	---	0.00	30.053 
05:05	45.7	45.7	45.7	72	37.2	0	0	---	0.00	30.053 
05:10	45.5	45.5	45.5	73	37.4	0	0	---	0.00	30.053 
05:15	45.4	45.4	45.4	74	37.6	0	0	---	0.00	30.059 
05:20	45.2	45.2	45.2	75	37.8	0	0	---	0.00	30.059 
05:25	45.2	45.2	45.2	75	37.8	0	0	---	0.00	30.059 
05:30	45.2	45.2	45.2	75	37.8	0	0	---	0.00	30.060 
05:35	45.2	45.2	45.2	76	38.1	0	0	---	0.00	30.060 
05:40	45.2	45.2	45.2	76	38.1	0	0	---	0.00	30.060 
05:45	45.2	45.2	45.2	76	38.1	0	0	---	0.00	30.054 
05:50	45.2	45.2	45.2	76	38.1	0	0	---	0.00	30.054 
05:55	45.2	45.2	45.2	76	38.1	0	0	---	0.00	30.054 
06:00	45.2	45.2	45.2	76	38.1	0	0	---	0.00	30.056 
06:05	45.4	45.4	45.4	76	38.3	0	0	---	0.00	30.056 
06:10	45.4	45.4	45.4	75	37.9	0	0	---	0.00	30.056 
06:15	45.5	45.5	45.5	75	38.0	0	0	---	0.00	30.053 
06:20	45.7	45.7	45.7	75	38.2	0	0	---	0.00	30.053 
06:25	45.8	45.8	45.8	74	38.0	0	0	---	0.00	30.053 
06:30	45.8	45.8	45.8	74	38.0	0	0	---	0.00	30.055 
06:35	45.8	45.8	45.8	74	38.0	0	0	---	0.00	30.055 
06:40	45.7	45.7	45.7	75	38.2	0	0	---	0.00	30.055 
06:45	45.7	45.7	45.7	76	38.6	0	0	---	0.00	30.055 
06:50	45.7	45.7	45.7	75	38.2	0	0	---	0.00	30.055 
06:55	45.7	45.7	45.7	76	38.6	0	1	112	0.00	30.055 
07:00	45.8	45.8	45.8	76	38.7	0	0	---	0.00	30.059 
07:05	46.1	46.1	46.1	75	38.6	0	1	112	0.00	30.059 
07:10	46.4	46.4	46.4	74	38.6	0	0	---	0.00	30.059 
07:15	46.8	46.8	46.8	73	38.6	0	1	112	0.00	30.062 
07:20	47.3	47.3	47.3	73	39.1	0	2	112	0.00	30.062 
07:25	47.6	47.6	47.6	72	39.0	0	2	112	0.00	30.062 
07:30	47.9	47.9	47.9	73	39.7	0	1	112	0.00	30.060 
07:35	48.2	48.2	48.2	72	39.6	0	3	112	0.00	30.060 
07:40	48.3	48.3	48.3	72	39.7	0	1	112	0.00	30.060 
07:45	48.6	48.6	48.6	71	39.6	0	2	112	0.00	30.060 
07:50	48.8	48.8	48.8	72	40.2	1	3	112	0.00	30.060 
07:55	49.1	49.1	49.1	71	40.1	1	3	112	0.00	30.060 
08:00	49.4	49.4	49.4	72	40.8	1	2	112	0.00	30.058 
08:05	49.6	49.6	49.6	71	40.6	0	2	112	0.00	30.058 
08:10	50.1	50.1	50.1	70	40.7	1	3	112	0.00	30.058 
08:15	50.5	50.5	50.5	70	41.1	0	2	112	0.00	30.059 
08:20	51.0	51.0	51.0	70	41.6	1	3	112	0.00	30.059 
08:25	51.4	51.4	51.4	69	41.6	1	3	112	0.00	30.059 
08:30	51.9	51.9	51.9	69	42.1	1	3	112	0.00	30.059 
08:35	52.5	52.5	52.5	68	42.2	1	4	90	0.00	30.059 
08:40	53.2	53.2	53.2	67	42.5	1	4	112	0.00	30.059 
08:45	53.9	53.9	53.9	67	43.2	2	4	90	0.00	30.058 
08:50	54.7	54.7	54.7	66	43.6	1	3	90	0.00	30.058 
08:55	55.1	55.1	55.1	65	43.5	2	3	90	0.00	30.058 
09:00	55.4	55.4	55.4	65	43.8	2	4	90	0.00	30.057 
09:05	55.7	55.7	55.7	66	44.5	2	4	90	0.00	30.057 
09:10	56.3	56.3	56.3	66	45.1	2	5	68	0.00	30.057 
09:15	57.0	57.0	57.0	65	45.4	2	4	112	0.00	30.054 
09:20	57.5	57.5	57.5	65	45.8	2	6	112	0.00	30.054 
09:25	58.3	58.3	58.3	65	46.6	2	3	112	0.00	30.054 
09:30	58.9	58.9	58.9	65	47.2	1	4	90	0.00	30.054 
09:35	59.5	59.5	59.5	63	46.9	1	6	112	0.00	30.054 
09:40	59.9	59.9	59.9	63	47.3	2	6	68	0.00	30.054 
09:45	59.9	59.9	59.9	63	47.3	2	7	90	0.00	30.055 
09:50	60.2	60.2	60.2	62	47.1	1	3	22	0.00	30.055 
09:55	60.9	60.9	60.9	62	47.8	1	3	112	0.00	30.055 
10:00	60.9	60.9	60.9	63	48.2	2	4	112	0.00	30.053 
10:05	60.9	60.9	60.9	63	48.2	2	4	90	0.00	30.053 
10:10	61.0	61.0	61.0	62	47.9	2	4	112	0.00	30.053 
10:15	61.2	61.2	61.2	62	48.1	2	6	90	0.00	30.053 
10:20	61.3	61.3	61.3	62	48.2	2	5	112	0.00	30.053 
10:25	62.0	62.0	62.0	61	48.4	3	5	90	0.00	30.053 
10:30	62.3	62.3	62.3	58	47.3	2	6	112	0.00	30.050 
10:35	62.6	62.6	62.6	60	48.5	2	5	112	0.00	30.050 
10:40	62.9	62.9	62.9	58	47.9	2	5	112	0.00	30.050 
10:45	63.2	63.2	63.2	59	48.6	2	4	112	0.00	30.049 
10:50	63.9	63.9	63.9	56	47.9	2	6	90	0.00	30.049 
10:55	64.2	64.2	64.2	55	47.7	2	6	112	0.00	30.049 
11:00	64.5	64.5	64.5	54	47.5	3	5	90	0.00	30.045 
11:05	64.3	64.3	64.3	55	47.8	3	6	90	0.00	30.045 
11:10	64.8	64.8	64.8	54	47.8	1	4	90	0.00	30.045 
11:15	65.5	65.5	65.5	50	46.4	2	5	90	0.00	30.046 
11:20	66.0	66.0	66.0	48	45.7	2	5	112	0.00	30.046 
11:25	66.1	66.1	66.1	46	44.7	3	9	90	0.00	30.046 
11:30	66.4	66.4	66.4	46	45.0	2	7	112	0.00	30.049 
11:35	66.4	66.4	66.4	50	47.2	3	7	90	0.00	30.049 
11:40	66.4	66.4	66.4	47	45.5	3	7	112	0.00	30.049 
11:45	66.9	66.9	66.9	49	47.1	2	5	90	0.00	30.040 
11:50	67.1	67.1	67.1	48	46.7	3	6	90	0.00	30.040 
11:55	66.6	66.6	66.6	43	43.4	4	9	112	0.00	30.040 
12:00	66.9	66.9	66.9	46	45.4	2	6	90	0.00	30.036 
12:05	67.1	67.1	67.1	46	45.6	2	6	68	0.00	30.036 
12:10	66.9	66.9	66.9	43	43.7	3	10	112	0.00	30.036 
12:15	66.9	66.9	66.9	43	43.7	2	6	90	0.00	30.033 
12:20	67.1	67.1	67.1	43	43.8	2	6	112	0.00	30.033 
12:25	67.6	67.6	67.6	44	44.9	2	7	68	0.00	30.033 
12:30	67.4	67.4	67.4	45	45.3	3	7	90	0.00	30.026 
12:35	67.4	67.4	67.4	43	44.1	3	7	112	0.00	30.026 
12:40	67.4	67.4	67.4	45	45.3	2	6	90	0.00	30.026 
12:45	67.6	67.6	67.6	43	44.3	2	6	112	0.00	30.019 
12:50	67.6	67.6	67.6	42	43.7	3	7	112	0.00	30.019 
12:55	67.6	67.6	67.6	42	43.7	3	7	112	0.00	30.019 
13:00	67.8	67.8	67.8	41	43.2	3	7	112	0.00	30.013 
13:05	67.9	67.9	67.9	42	44.0	2	5	112	0.00	30.013 
13:10	67.9	67.9	67.9	40	42.7	4	7	90	0.00	30.013 
13:15	68.1	68.1	68.1	40	42.9	2	6	90	0.00	30.005 
13:20	68.4	68.4	68.4	39	42.5	2	10	112	0.00	30.005 
13:25	68.1	68.1	68.1	40	42.9	4	10	90	0.00	30.005 
13:30	68.3	68.3	68.3	39	42.4	1	3	90	0.00	29.999 
13:35	68.4	68.4	68.4	38	41.8	2	6	112	0.00	29.999 
13:40	68.6	68.6	68.6	38	42.0	1	5	112	0.00	29.999 
13:45	69.3	69.3	69.3	39	43.3	2	4	90	0.00	29.990 
13:50	69.6	69.6	69.6	40	44.2	2	6	90	0.00	29.990 
13:55	69.9	69.9	69.9	40	44.5	1	3	112	0.00	29.990 
14:00	69.9	69.9	69.9	35	41.0	3	7	112	0.00	29.987 
14:05	69.6	69.6	69.6	38	42.9	3	6	112	0.00	29.987 
14:10	69.8	69.8	69.8	38	43.0	1	5	112	0.00	29.987 
14:15	69.4	69.4	69.4	34	39.8	2	5	90	0.00	29.987 
14:20	68.6	68.6	68.6	39	42.6	1	5	68	0.00	29.987 
14:25	68.4	68.4	68.4	38	41.8	1	7	68	0.00	29.987 
14:30	69.1	69.1	69.1	39	43.1	1	4	112	0.00	29.987 
14:35	69.6	69.6	69.6	41	44.8	2	5	112	0.00	29.987 
14:40	69.9	69.9	69.9	38	43.1	2	5	112	0.00	29.987 
14:45	69.6	69.6	69.6	35	40.7	2	6	135	0.00	29.988 
14:50	69.4	69.4	69.4	39	43.4	2	6	90	0.00	29.988 
14:55	69.3	69.3	69.3	39	43.3	3	5	112	0.00	29.988 
15:00	68.9	68.9	68.9	37	41.5	1	6	90	0.00	29.984 
15:05	68.4	68.4	68.4	39	42.5	2	5	112	0.00	29.984 
15:10	68.3	68.3	68.3	39	42.4	1	3	112	0.00	29.984 
15:15	68.6	68.6	68.6	40	43.3	0	2	112	0.00	29.985 
15:20	69.6	69.6	69.6	39	43.5	3	9	112	0.00	29.985 
15:25	69.8	69.8	69.8	40	44.4	2	6	90	0.00	29.985 
15:30	70.1	70.1	70.1	38	43.3	1	4	112	0.00	29.982 
15:35	70.6	70.6	70.6	38	43.7	1	3	112	0.00	29.982 
15:40	70.9	70.9	70.9	36	42.6	0	2	112	0.00	29.982 
15:45	71.1	71.1	71.1	37	43.5	2	5	90	0.00	29.978 
15:50	70.4	70.4	70.4	31	38.3	2	4	90	0.00	29.978 
15:55	70.6	70.6	70.6	32	39.3	1	5	90	0.00	29.978 
16:00	70.9	70.9	70.9	35	41.9	2	6	90	0.00	29.973 
16:05	71.3	71.3	71.3	40	45.7	1	5	112	0.00	29.973 
16:10	71.3	71.3	71.3	35	42.2	1	6	112	0.00	29.973 
16:15	71.3	71.3	71.3	37	43.7	1	4	90	0.00	29.971 
16:20	70.9	70.9	70.9	33	40.3	1	5	112	0.00	29.971 
16:25	70.8	70.8	70.8	32	39.5	1	6	112	0.00	29.971 
16:30	70.1	70.1	70.1	37	42.6	1	6	68	0.00	29.964 
16:35	69.6	69.6	69.6	37	42.2	2	5	90	0.00	29.964 
16:40	69.3	69.3	69.3	38	42.6	2	6	90	0.00	29.964 
16:45	69.3	69.3	69.3	36	41.2	1	5	90	0.00	29.965 
16:50	69.1	69.1	69.1	37	41.7	0	3	112	0.00	29.965 
16:55	68.9	68.9	68.9	38	42.2	1	4	112	0.00	29.965 
17:00	68.9	68.9	68.9	39	42.9	1	4	112	0.00	29.962 
17:05	68.8	68.8	68.8	36	40.7	1	4	68	0.00	29.962 
17:10	68.8	68.8	68.8	39	42.8	2	5	90	0.00	29.962 
17:15	68.6	68.6	68.6	37	41.3	2	5	112	0.00	29.959 
17:20	68.4	68.4	68.4	37	41.1	1	3	68	0.00	29.959 
17:25	68.4	68.4	68.4	36	40.4	1	5	68	0.00	29.959 
17:30	68.4	68.4	68.4	36	40.4	2	4	112	0.00	29.958 
17:35	68.4	68.4	68.4	36	40.4	2	5	90	0.00	29.958 
17:40	68.6	68.6	68.6	36	40.6	2	4	90	0.00	29.958 
17:45	68.8	68.8	68.8	37	41.5	1	3	90	0.00	29.951 
17:50	68.9	68.9	68.9	38	42.2	2	5	90	0.00	29.951 
17:55	69.1	69.1	69.1	37	41.7	2	5	112	0.00	29.951 
18:00	69.4	69.4	69.4	36	41.3	2	4	112	0.00	29.951 
18:05	69.4	69.4	69.4	37	42.0	2	5	90	0.00	29.951 
18:10	69.3	69.3	69.3	35	40.5	2	5	112	0.00	29.951 
18:15	69.1	69.1	69.1	36	41.0	2	5	90	0.00	29.948 
18:20	68.9	68.9	68.9	37	41.5	1	4	90	0.00	29.948 
18:25	68.9	68.9	68.9	35	40.1	1	3	90	0.00	29.948 
18:30	68.8	68.8	68.8	36	40.7	1	4	112	0.00	29.949 
18:35	68.6	68.6	68.6	35	39.8	1	3	90	0.00	29.949 
18:40	68.3	68.3	68.3	35	39.6	1	3	90	0.00	29.949 
18:45	68.3	68.3	68.3	34	38.8	1	3	90	0.00	29.947 
18:50	68.3	68.3	68.3	35	39.6	2	4	90	0.00	29.947 
18:55	68.3	68.3	68.3	36	40.3	1	4	90	0.00	29.947 
19:00	68.3	68.3	68.3	35	39.6	1	3	112	0.00	29.946 
19:05	68.1	68.1	68.1	37	40.8	0	2	112	0.00	29.946 
19:10	67.9	67.9	67.9	36	40.0	1	2	112	0.00	29.946 
19:15	67.8	67.8	67.8	36	39.9	1	2	158	0.00	29.947 
19:20	67.6	67.6	67.6	36	39.7	1	3	158	0.00	29.947 
19:25	67.6	67.6	67.6	36	39.7	1	2	135	0.00	29.947 
19:30	67.4	67.4	67.4	38	40.9	0	1	135	0.00	29.948 
19:35	67.3	67.3	67.3	37	40.1	1	2	135	0.00	29.948 
19:40	67.1	67.1	67.1	36	39.2	1	4	68	0.00	29.948 
19:45	67.1	67.1	67.1	37	40.0	1	3	68	0.00	29.947 
19:50	66.9	66.9	66.9	39	41.1	1	3	112	0.00	29.947 
19:55	66.4	66.4	66.4	40	41.3	1	3	112	0.00	29.947 
20:00	66.1	66.1	66.1	42	42.3	1	3	112	0.00	29.953 
20:05	65.8	65.8	65.8	43	42.7	1	2	112	0.00	29.953 
20:10	65.3	65.3	65.3	44	42.8	0	1	112	0.00	29.953 
20:15	65.0	65.0	65.0	44	42.6	1	2	112	0.00	29.947 
20:20	64.7	64.7	64.7	44	42.3	0	1	112	0.00	29.947 
20:25	64.3	64.3	64.3	45	42.5	0	2	112	0.00	29.947 
20:30	64.0	64.0	64.0	44	41.6	1	3	112	0.00	29.954 
20:35	63.9	63.9	63.9	45	42.1	0	4	112	0.00	29.954 
20:40	63.5	63.5	63.5	46	42.3	0	2	68	0.00	29.954 
20:45	63.4	63.4	63.4	46	42.3	0	1	68	0.00	29.957 
20:50	63.2	63.2	63.2	46	42.1	0	2	68	0.00	29.957 
20:55	63.1	63.1	63.1	47	42.5	0	1	68	0.00	29.957 
21:00	62.7	62.7	62.7	47	42.2	1	2	68	0.00	29.960 
21:05	62.6	62.6	62.6	48	42.6	1	2	68	0.00	29.960 
21:10	62.4	62.4	62.4	49	43.0	0	2	68	0.00	29.960 
21:15	62.0	62.0	62.0	51	43.7	0	2	68	0.00	29.957 
21:20	61.5	61.5	61.5	51	43.2	1	2	68	0.00	29.957 
21:25	61.2	61.2	61.2	51	42.9	1	2	68	0.00	29.957 
21:30	60.9	60.9	60.9	51	42.6	1	3	68	0.00	29.956 
21:35	60.7	60.7	60.7	51	42.5	1	3	90	0.00	29.956 
21:40	60.5	60.5	60.5	52	42.8	1	3	90	0.00	29.956 
21:45	60.2	60.2	60.2	53	43.0	1	5	90	0.00	29.958 
21:50	59.9	59.9	59.9	54	43.2	1	4	90	0.00	29.958 
21:55	59.8	59.8	59.8	55	43.6	1	2	90	0.00	29.958 
22:00	59.5	59.5	59.5	56	43.8	0	2	90	0.00	29.959 
22:05	59.2	59.2	59.2	57	44.0	0	2	90	0.00	29.959 
22:10	58.7	58.7	58.7	58	44.0	0	1	90	0.00	29.959 
22:15	58.4	58.4	58.4	58	43.7	0	1	90	0.00	29.956 
22:20	58.3	58.3	58.3	59	44.0	0	1	90	0.00	29.956 
22:25	58.0	58.0	58.0	60	44.2	0	1	90	0.00	29.956 
22:30	57.8	57.8	57.8	60	44.0	0	1	90	0.00	29.958 
22:35	57.6	57.6	57.6	61	44.2	0	1	90	0.00	29.958 
22:40	57.3	57.3	57.3	62	44.4	0	1	90	0.00	29.958 
22:45	57.0	57.0	57.0	62	44.1	0	0	---	0.00	29.965 
22:50	56.7	56.7	56.7	63	44.2	0	0	---	0.00	29.965 
22:55	56.3	56.3	56.3	64	44.3	0	0	---	0.00	29.965 
23:00	55.9	55.9	55.9	64	43.9	0	0	---	0.00	29.965 
23:05	55.6	55.6	55.6	65	44.0	0	0	---	0.00	29.965 
23:10	55.1	55.1	55.1	66	43.9	0	0	---	0.00	29.965 
23:15	54.7	54.7	54.7	66	43.6	0	0	---	0.00	29.959 
23:20	54.4	54.4	54.4	68	44.1	0	0	---	0.00	29.959 
23:25	53.9	53.9	53.9	70	44.3	0	0	---	0.00	29.959 
23:30	53.6	53.6	53.6	70	44.1	0	0	---	0.00	29.958 
23:35	53.3	53.3	53.3	72	44.5	0	0	---	0.00	29.958 
23:40	52.9	52.9	52.9	73	44.5	0	0	---	0.00	29.958 
23:45	52.8	52.8	52.8	74	44.7	0	1	90	0.00	29.956 
23:50	53.1	53.1	53.1	74	45.0	0	1	90	0.00	29.956 
23:55	53.5	53.5	53.5	73	45.1	0	1	90	0.00	29.956 

CoCoRaHS
IN-AL-39
A2 Web Hosting
Creative Commons License
GoDaddy
search engine by freefind advanced

loaded 2018-12-19 10:24:22 • last modified 2010-11-18 10:43:29
Privacy PolicyDisclaimer
• wx.awcolley.com is powered by PmWiki v.2002016 •
• all content (unless otherwise noted) © 2018 A W Colley